Time;durP1;ratioP1;P1;durP2;ratioP2;P2;SDS_P1;SDS_P2;PMS_P1;PMS_P2;Temp;Humidity;BMP_temperature;BMP_pressure;BME280_temperature;BME280_humidity;BME280_pressure;Samples;Min_cycle;Max_cycle;Signal;HPM_P1;HPM_P2
2022/02/27 00:01:33;;;;;;;2.03;1.27;;;8.80;67.00;;;;;;20876766;28;20029;-71
2022/02/27 00:11:35;;;;;;;3.67;1.67;;;8.80;67.00;;;;;;20892781;28;20397;-71
2022/02/27 00:21:36;;;;;;;3.45;1.70;;;8.80;67.00;;;;;;20875280;28;20025;-70
2022/02/27 00:31:36;;;;;;;2.75;1.67;;;8.80;67.00;;;;;;20842383;28;20060;-70
2022/02/27 00:41:38;;;;;;;6.03;1.77;;;8.80;67.00;;;;;;20873754;28;20036;-70
2022/02/27 00:51:39;;;;;;;2.45;1.40;;;8.70;67.00;;;;;;20874116;28;20044;-70
2022/02/27 01:01:39;;;;;;;2.63;1.63;;;8.70;67.00;;;;;;20873356;28;20187;-70
2022/02/27 01:11:40;;;;;;;2.67;1.50;;;8.80;67.00;;;;;;20857073;28;20481;-70
2022/02/27 01:21:41;;;;;;;5.78;1.90;;;8.80;67.00;;;;;;20856552;28;20049;-70
2022/02/27 01:31:42;;;;;;;3.28;1.67;;;8.70;67.00;;;;;;20857374;28;20036;-70
2022/02/27 01:41:45;;;;;;;3.58;1.55;;;8.70;67.60;;;;;;20839737;28;20433;-71
2022/02/27 01:51:46;;;;;;;3.50;1.30;;;8.70;66.90;;;;;;20851781;28;20063;-71
2022/02/27 02:01:46;;;;;;;3.88;1.25;;;8.80;67.00;;;;;;20785998;28;20038;-70
2022/02/27 02:11:47;;;;;;;3.40;1.42;;;8.70;66.90;;;;;;20803074;28;20405;-71
2022/02/27 02:21:50;;;;;;;3.00;1.60;;;8.70;66.90;;;;;;20774382;28;20090;-70
2022/02/27 02:31:54;;;;;;;3.75;1.88;;;8.70;66.90;;;;;;20867436;28;20588;-70
2022/02/27 02:41:56;;;;;;;3.70;2.25;;;8.70;67.00;;;;;;20883917;28;20040;-72
2022/02/27 02:52:02;;;;;;;4.80;1.23;;;8.70;66.90;;;;;;20898467;28;20060;-70
2022/02/27 03:02:03;;;;;;;2.97;1.73;;;8.70;66.90;;;;;;20898039;28;20136;-70
2022/02/27 03:12:04;;;;;;;3.72;1.88;;;8.70;66.90;;;;;;20897907;28;20484;-71
2022/02/27 03:22:05;;;;;;;1.77;1.20;;;8.60;66.90;;;;;;20863069;28;20041;-70
2022/02/27 03:32:06;;;;;;;4.15;1.67;;;8.60;66.90;;;;;;20879903;28;20118;-70
2022/02/27 03:42:07;;;;;;;2.80;1.35;;;8.70;66.90;;;;;;20878223;28;20469;-70
2022/02/27 03:52:07;;;;;;;3.20;1.50;;;8.60;66.90;;;;;;20893783;28;20059;-70
2022/02/27 04:02:08;;;;;;;2.75;1.52;;;8.60;66.90;;;;;;20910918;28;20464;-70
2022/02/27 04:12:09;;;;;;;2.88;1.85;;;8.60;66.90;;;;;;20880761;28;20041;-70
2022/02/27 04:22:09;;;;;;;3.70;1.87;;;8.60;66.80;;;;;;20874297;28;20535;-70
2022/02/27 04:32:10;;;;;;;3.33;1.65;;;8.60;66.80;;;;;;20858351;28;20436;-72
2022/02/27 04:42:11;;;;;;;4.25;1.98;;;8.60;66.80;;;;;;20874213;28;20357;-71
2022/02/27 04:52:11;;;;;;;2.33;1.20;;;8.50;66.70;;;;;;20874067;28;20091;-69
2022/02/27 05:02:12;;;;;;;4.57;1.60;;;8.60;66.80;;;;;;20889832;28;20128;-70
2022/02/27 05:12:12;;;;;;;2.33;1.13;;;8.50;66.70;;;;;;20889975;28;20033;-70
2022/02/27 05:22:13;;;;;;;3.58;1.45;;;8.50;66.80;;;;;;20888776;28;20044;-70
2022/02/27 05:32:13;;;;;;;5.30;1.52;;;8.60;66.80;;;;;;20869699;28;20114;-71
2022/02/27 05:42:14;;;;;;;5.07;1.73;;;8.50;66.80;;;;;;20870754;28;20481;-70
2022/02/27 05:52:14;;;;;;;3.00;1.63;;;8.50;66.90;;;;;;20887774;28;20508;-70
2022/02/27 06:02:15;;;;;;;3.33;1.52;;;8.50;66.90;;;;;;20885610;28;20537;-70
2022/02/27 06:12:16;;;;;;;2.45;1.33;;;8.50;66.90;;;;;;20901438;28;20037;-69
2022/02/27 06:22:16;;;;;;;2.20;1.23;;;8.50;66.90;;;;;;20866840;28;20045;-70
2022/02/27 06:32:17;;;;;;;3.38;1.33;;;8.50;66.90;;;;;;20894543;28;20104;-72
2022/02/27 06:42:17;;;;;;;3.03;1.42;;;8.50;66.90;;;;;;20898548;28;20029;-71
2022/02/27 06:52:18;;;;;;;4.88;2.05;;;8.50;66.90;;;;;;20899103;28;20072;-70
2022/02/27 07:02:19;;;;;;;2.60;1.67;;;8.50;67.00;;;;;;20876557;28;20037;-70
2022/02/27 07:12:19;;;;;;;2.60;1.50;;;8.50;67.00;;;;;;20913468;28;20032;-78
2022/02/27 07:22:20;;;;;;;2.38;1.13;;;8.50;67.00;;;;;;20854572;28;20106;-74
2022/02/27 07:32:20;;;;;;;2.20;1.13;;;8.50;67.00;;;;;;20825109;28;20493;-75
2022/02/27 07:42:21;;;;;;;1.80;1.05;;;8.50;67.10;;;;;;20810060;28;20296;-77
2022/02/27 07:52:22;;;;;;;2.47;1.23;;;8.50;67.20;;;;;;20792759;28;20083;-74
2022/02/27 08:02:23;;;;;;;4.47;1.73;;;8.50;67.20;;;;;;20843514;28;20037;-81
2022/02/27 08:12:24;;;;;;;3.65;1.25;;;8.50;67.20;;;;;;20826692;28;20389;-73
2022/02/27 08:22:24;;;;;;;2.75;1.55;;;8.40;67.20;;;;;;20828146;28;20041;-74
2022/02/27 08:32:25;;;;;;;2.45;1.48;;;8.50;67.30;;;;;;20827586;28;20060;-77
2022/02/27 08:42:28;;;;;;;2.58;1.48;;;8.50;67.30;;;;;;20809309;28;20040;-78
2022/02/27 08:52:29;;;;;;;2.17;1.23;;;8.50;67.30;;;;;;20825360;28;20401;-82
2022/02/27 09:02:29;;;;;;;4.13;1.75;;;8.50;67.30;;;;;;20819699;28;20068;-78
2022/02/27 09:12:30;;;;;;;4.68;1.55;;;8.60;67.30;;;;;;20889246;28;20048;-78
2022/02/27 09:22:30;;;;;;;1.77;1.30;;;8.60;67.20;;;;;;20883686;28;20040;-76
2022/02/27 09:32:31;;;;;;;2.58;1.35;;;8.80;67.00;;;;;;20855309;28;20287;-76
2022/02/27 09:42:32;;;;;;;3.53;1.23;;;8.90;66.70;;;;;;20788993;28;20034;-77
2022/02/27 09:52:33;;;;;;;3.30;1.20;;;9.00;66.60;;;;;;20723849;28;20041;-78
2022/02/27 10:02:33;;;;;;;2.25;1.40;;;9.10;66.50;;;;;;20773911;28;20497;-77
2022/02/27 10:12:34;;;;;;;3.83;1.30;;;9.20;66.40;;;;;;20787193;28;20065;-77
2022/02/27 10:22:36;;;;;;;2.80;1.65;;;9.20;66.40;;;;;;20736244;28;20124;-77
2022/02/27 10:32:36;;;;;;;6.18;1.75;;;9.20;66.40;;;;;;20812283;28;20033;-75
2022/02/27 10:42:37;;;;;;;2.90;1.38;;;9.10;66.50;;;;;;20786237;28;20478;-79
2022/02/27 10:52:46;;;;;;;2.22;1.30;;;9.10;66.60;;;;;;20909750;28;20059;-75
2022/02/27 11:02:54;;;;;;;1.92;1.23;;;9.10;66.70;;;;;;20857907;28;20036;-74
2022/02/27 11:13:00;;;;;;;2.03;1.20;;;9.10;66.80;;;;;;20865990;28;20036;-81
2022/02/27 11:23:01;;;;;;;3.05;1.40;;;9.00;66.80;;;;;;21222509;22;20053;-76
2022/02/27 11:33:06;;;;;;;2.87;1.20;;;9.00;67.00;;;;;;20730892;28;20052;-74
2022/02/27 11:43:07;;;;;;;2.70;1.23;;;9.00;67.00;;;;;;20713774;28;20799;-74
2022/02/27 11:53:20;;;;;;;3.83;1.05;;;9.10;67.20;;;;;;20714148;28;20034;-77
2022/02/27 12:03:30;;;;;;;3.88;2.08;;;9.00;67.20;;;;;;20713018;28;20037;-78
2022/02/27 12:13:33;;;;;;;1.38;0.85;;;9.00;67.30;;;;;;20743404;28;20111;-77
2022/02/27 12:23:43;;;;;;;2.67;1.20;;;9.10;67.40;;;;;;20728237;28;20050;-77
2022/02/27 12:33:43;;;;;;;3.15;1.48;;;9.10;67.40;;;;;;20726923;28;20045;-78
2022/02/27 12:43:44;;;;;;;6.53;1.17;;;9.10;67.30;;;;;;20711086;28;20026;-78
2022/02/27 12:53:45;;;;;;;1.65;0.93;;;9.20;67.10;;;;;;20726834;28;20296;-77
2022/02/27 13:04:05;;;;;;;3.45;1.40;;;9.20;67.10;;;;;;20725742;28;20037;-75
2022/02/27 13:14:06;;;;;;;1.60;0.80;;;9.20;67.20;;;;;;20727336;28;20042;-74
2022/02/27 13:24:07;;;;;;;2.13;0.75;;;9.20;67.30;;;;;;20724593;28;20053;-76
2022/02/27 13:34:08;;;;;;;2.35;0.75;;;9.20;67.30;;;;;;20725069;28;20649;-77
2022/02/27 13:44:09;;;;;;;2.53;0.88;;;9.30;68.00;;;;;;20726156;28;20033;-77
2022/02/27 13:54:22;;;;;;;0.80;0.52;;;9.20;67.40;;;;;;20722498;28;20042;-76
2022/02/27 14:04:25;;;;;;;1.67;1.00;;;9.20;67.60;;;;;;20758135;28;20074;-75
2022/02/27 14:14:27;;;;;;;1.23;0.80;;;9.20;67.80;;;;;;20733729;28;20401;-75
2022/02/27 14:24:29;;;;;;;4.63;0.80;;;9.10;67.90;;;;;;20736916;28;20427;-76
2022/02/27 14:34:30;;;;;;;4.32;1.48;;;9.10;68.00;;;;;;20752485;28;20034;-75
2022/02/27 14:44:30;;;;;;;1.63;0.80;;;9.00;68.10;;;;;;20730374;28;20041;-74
2022/02/27 14:54:31;;;;;;;2.15;1.00;;;9.00;68.20;;;;;;20749953;28;20276;-77
2022/02/27 15:04:32;;;;;;;1.60;0.88;;;9.00;68.30;;;;;;20714835;28;20145;-79
2022/02/27 15:14:32;;;;;;;2.20;0.70;;;9.00;68.40;;;;;;20717697;28;20038;-77
2022/02/27 15:24:33;;;;;;;2.17;0.70;;;9.00;68.40;;;;;;20733260;28;20051;-76
2022/02/27 15:34:34;;;;;;;1.23;0.85;;;9.00;68.30;;;;;;20733982;28;20300;-77
2022/02/27 15:44:34;;;;;;;1.60;0.50;;;9.00;68.30;;;;;;20733446;28;20116;-75
2022/02/27 15:54:35;;;;;;;5.05;1.70;;;9.00;68.20;;;;;;20748382;28;20304;-72
2022/02/27 16:04:37;;;;;;;2.45;1.10;;;9.00;68.20;;;;;;20728398;28;20042;-75
2022/02/27 16:14:38;;;;;;;3.70;1.00;;;9.00;68.00;;;;;;20714880;28;20030;-74
2022/02/27 16:24:38;;;;;;;1.75;1.02;;;9.00;68.00;;;;;;20729115;28;20049;-76
2022/02/27 16:34:40;;;;;;;3.38;1.15;;;9.10;68.00;;;;;;20727407;28;20062;-74
2022/02/27 16:44:40;;;;;;;2.75;1.20;;;9.10;67.90;;;;;;20713891;28;20030;-75
2022/02/27 16:54:41;;;;;;;1.38;0.95;;;9.00;67.90;;;;;;20692281;28;20450;-76
2022/02/27 17:04:42;;;;;;;1.47;1.00;;;9.00;68.00;;;;;;20739575;28;20062;-78
2022/02/27 17:14:42;;;;;;;2.65;1.48;;;9.00;68.00;;;;;;20726198;28;20336;-78
2022/02/27 17:24:43;;;;;;;2.80;1.00;;;9.00;68.00;;;;;;20733387;28;20072;-75
2022/02/27 17:34:43;;;;;;;2.20;1.00;;;8.90;68.60;;;;;;20741192;28;20037;-75
2022/02/27 17:44:44;;;;;;;2.50;1.13;;;8.90;67.90;;;;;;20757993;28;20044;-78
2022/02/27 17:54:44;;;;;;;1.08;0.88;;;8.90;67.90;;;;;;20721497;28;20034;-70
2022/02/27 18:04:45;;;;;;;1.88;1.15;;;8.90;67.90;;;;;;20757793;28;20053;-71
2022/02/27 18:14:46;;;;;;;3.97;3.63;;;8.90;68.00;;;;;;20717402;28;20463;-71
2022/02/27 18:24:46;;;;;;;2.83;1.20;;;8.80;67.90;;;;;;20752310;28;20296;-70
2022/02/27 18:34:47;;;;;;;2.30;1.15;;;8.80;67.90;;;;;;20735027;28;20037;-71
2022/02/27 18:44:47;;;;;;;3.55;1.30;;;8.80;67.90;;;;;;20751651;28;20073;-70
2022/02/27 18:54:48;;;;;;;2.65;1.45;;;8.90;67.90;;;;;;20750646;28;20048;-70
2022/02/27 19:04:48;;;;;;;1.97;1.13;;;8.80;67.90;;;;;;20717654;28;20042;-70
2022/02/27 19:14:49;;;;;;;1.75;0.90;;;8.80;67.90;;;;;;20750578;28;20323;-73
2022/02/27 19:24:50;;;;;;;1.58;1.00;;;8.80;67.90;;;;;;20746906;28;20120;-71
2022/02/27 19:34:50;;;;;;;1.92;1.20;;;8.70;67.90;;;;;;20694967;28;20621;-71
2022/02/27 19:44:51;;;;;;;2.63;1.23;;;8.70;67.90;;;;;;20728562;28;20394;-70
2022/02/27 19:54:52;;;;;;;3.13;0.93;;;8.80;68.00;;;;;;20728217;28;20116;-70
2022/02/27 20:04:52;;;;;;;1.60;0.52;;;8.70;67.90;;;;;;20743949;28;20116;-72
2022/02/27 20:14:53;;;;;;;2.08;1.00;;;8.70;67.90;;;;;;20744603;28;20029;-71
2022/02/27 20:24:53;;;;;;;4.55;1.50;;;8.70;67.90;;;;;;20726698;28;20033;-71
2022/02/27 20:34:54;;;;;;;1.98;1.15;;;8.70;67.90;;;;;;20723388;28;20088;-70
2022/02/27 20:44:54;;;;;;;2.38;1.10;;;8.70;67.90;;;;;;20724290;28;20065;-70
2022/02/27 20:54:55;;;;;;;2.50;1.08;;;8.70;68.50;;;;;;20743133;28;20042;-70
2022/02/27 21:04:56;;;;;;;1.73;1.02;;;8.70;67.90;;;;;;20743215;28;20038;-70
2022/02/27 21:14:56;;;;;;;1.67;1.15;;;8.70;67.80;;;;;;20742029;28;20049;-72
2022/02/27 21:24:57;;;;;;;2.03;0.80;;;8.70;67.90;;;;;;20725331;28;20157;-70
2022/02/27 21:34:58;;;;;;;1.23;0.88;;;8.70;67.90;;;;;;20708495;28;20504;-70
2022/02/27 21:44:59;;;;;;;3.13;1.33;;;8.70;67.80;;;;;;20740507;28;20041;-70
2022/02/27 21:54:59;;;;;;;2.47;1.35;;;8.70;67.90;;;;;;20739386;28;20038;-71
2022/02/27 22:05:00;;;;;;;2.42;0.95;;;8.60;67.80;;;;;;20722366;28;20069;-70
2022/02/27 22:15:01;;;;;;;2.08;1.10;;;8.60;67.80;;;;;;20736879;28;20694;-71
2022/02/27 22:25:02;;;;;;;2.38;1.10;;;8.60;67.80;;;;;;20720643;28;20339;-70
2022/02/27 22:35:02;;;;;;;1.65;1.15;;;8.60;67.70;;;;;;20719454;28;20120;-72
2022/02/27 22:45:04;;;;;;;2.72;1.63;;;8.60;67.70;;;;;;20719583;28;20116;-70
2022/02/27 22:55:05;;;;;;;3.35;1.30;;;8.60;67.70;;;;;;20719608;28;20121;-72
2022/02/27 23:15:25;;;;;;;2.28;1.30;;;8.60;67.70;;;;;;20749479;28;20038;-70
2022/02/27 23:25:26;;;;;;;2.42;1.45;;;8.60;67.70;;;;;;20717429;28;20046;-71
2022/02/27 23:35:27;;;;;;;2.83;1.60;;;8.60;67.70;;;;;;20731416;28;20528;-70
2022/02/27 23:45:27;;;;;;;2.13;1.40;;;8.60;67.70;;;;;;20731688;28;20049;-71
2022/02/27 23:55:28;;;;;;;2.13;1.48;;;8.60;67.70;;;;;;20729863;28;20042;-71
